Search for airport 
image banner adimage banner ad
image banner ad

SSKS - Cachoeira do Sul Airport

Located in Cachoeira Do Sul, Brazil

ICAO - SSKS, IATA - QDB

Data provided by Airmate  

General information

Coordinates: S30°0'8" W52°56'25"
Elevation is 252 feet MSL.
Magnetic variation is -16° East
View others Airports in Rio Grande do Sul

Operational data

Open for public use
Current time UTC:
Current local time:
Weather at : SBSM - Santa Maria Airport ( 79 km )
METAR: SBSM 011000Z 10009KT 9999 FEW013 BKN020 19/17 Q1016
TAF: TAF SBSM 010300Z 0106/0118 09008KT 9999 SCT010 TN20/0108Z TX26/0117Z BECMG 0110/0112 SCT012 BECMG 0115/0117 12008KT SCT025 RMK PEO
View NOTAMs / SUP AIP / TFR affecting this airport [VIEW]
Communications frequencies: [VIEW]

Runways:

RWY identifierQFULength (ft)Width (ft)SurfaceLDA (ft)
12334660ASP
30334660ASP

Airport contact information

Address: Cachoeira Do Sul Brazil

Satellite view of SSKS